createdAt,value
2019-05-02T00:01:32.889Z,19.50
2019-05-02T00:04:03.452Z,19.87
2019-05-02T00:06:38.046Z,19.63
2019-05-02T00:09:09.142Z,20.03
2019-05-02T00:11:35.701Z,18.47
2019-05-02T00:14:06.737Z,19.10
2019-05-02T00:16:37.289Z,18.97
2019-05-02T00:19:09.046Z,19.30
2019-05-02T00:21:42.705Z,17.47
2019-05-02T00:24:09.312Z,18.20
2019-05-02T00:26:39.958Z,16.90
2019-05-02T00:29:10.809Z,17.73
2019-05-02T00:31:41.892Z,16.67
2019-05-02T00:34:11.773Z,16.43
2019-05-02T00:36:42.281Z,15.97
2019-05-02T00:39:13.828Z,16.37
2019-05-02T00:41:43.185Z,15.60
2019-05-02T00:44:13.593Z,15.33
2019-05-02T00:46:44.086Z,15.17
2019-05-02T00:49:14.624Z,15.40
2019-05-02T00:51:45.140Z,14.97
2019-05-02T00:54:19.164Z,15.83
2019-05-02T00:56:46.168Z,16.73
2019-05-02T00:59:16.627Z,18.27
2019-05-02T01:01:51.088Z,17.33
2019-05-02T01:04:40.575Z,16.10
2019-05-02T01:07:11.137Z,16.03
2019-05-02T01:09:42.110Z,16.47
2019-05-02T01:12:25.173Z,17.13
2019-05-02T01:14:42.521Z,15.67
2019-05-02T01:17:13.105Z,15.40
2019-05-02T01:19:47.225Z,15.10
2019-05-02T01:22:15.856Z,16.00
2019-05-02T01:24:44.686Z,15.30
2019-05-02T01:28:18.856Z,15.27
2019-05-02T01:31:24.101Z,14.87
2019-05-02T01:34:03.537Z,15.50
2019-05-02T01:36:41.138Z,14.47
2019-05-02T01:39:10.214Z,13.50
2019-05-02T01:41:40.665Z,14.23
2019-05-02T01:44:11.250Z,13.53
2019-05-02T01:46:41.725Z,13.40
2019-05-02T01:49:12.135Z,12.93
2019-05-02T01:51:47.752Z,12.57
2019-05-02T01:54:13.487Z,13.07
2019-05-02T01:56:44.974Z,12.80
2019-05-02T01:59:15.573Z,12.67
2019-05-02T02:01:46.165Z,12.70
2019-05-02T02:04:20.893Z,13.03
2019-05-02T02:06:47.138Z,13.03
2019-05-02T02:09:17.676Z,12.90
2019-05-02T02:11:48.180Z,13.23
2019-05-02T02:14:18.974Z,13.10
2019-05-02T02:16:49.449Z,13.70
2019-05-02T02:19:23.822Z,12.63
2019-05-02T02:22:02.671Z,13.67
2019-05-02T02:24:38.379Z,13.20
2019-05-02T02:27:07.119Z,12.87
2019-05-02T02:29:38.948Z,12.20
2019-05-02T02:32:07.851Z,12.63
2019-05-02T02:34:38.334Z,12.53
2019-05-02T02:37:13.048Z,12.07
2019-05-02T02:39:39.389Z,12.37
2019-05-02T02:42:09.876Z,12.30
2019-05-02T02:45:19.031Z,11.57
2019-05-02T02:47:45.579Z,11.40
2019-05-02T02:50:15.900Z,11.10
2019-05-02T02:52:47.148Z,10.97
2019-05-02T02:55:22.255Z,12.07
2019-05-02T02:57:47.321Z,12.03
2019-05-02T03:00:17.972Z,12.00
2019-05-02T03:02:49.969Z,12.13
2019-05-02T03:05:26.333Z,12.37
2019-05-02T03:07:49.373Z,11.43
2019-05-02T03:10:19.811Z,12.50
2019-05-02T03:12:55.369Z,13.00
2019-05-02T03:15:27.905Z,13.03
2019-05-02T03:17:59.973Z,13.67
2019-05-02T03:20:27.056Z,13.17
2019-05-02T03:22:56.824Z,13.97
2019-05-02T03:25:49.266Z,13.43
2019-05-02T03:27:57.866Z,13.30
2019-05-02T03:30:35.925Z,12.83
2019-05-02T03:33:11.263Z,13.33
2019-05-02T03:35:40.568Z,12.90
2019-05-02T03:37:59.690Z,13.63
2019-05-02T03:40:32.224Z,13.63
2019-05-02T03:43:00.791Z,13.50
2019-05-02T03:45:32.034Z,13.53
2019-05-02T03:48:01.988Z,14.10
2019-05-02T03:50:35.291Z,13.93
2019-05-02T03:53:03.257Z,15.80
2019-05-02T03:55:34.176Z,16.97
2019-05-02T03:58:13.429Z,16.17
2019-05-02T04:00:35.050Z,15.70
2019-05-02T04:03:05.721Z,15.90
2019-05-02T04:05:40.624Z,16.40
2019-05-02T04:08:06.482Z,16.67
2019-05-02T04:10:52.517Z,15.27
2019-05-02T04:13:18.843Z,15.93
2019-05-02T04:15:49.289Z,16.90
2019-05-02T04:18:20.124Z,16.27
2019-05-02T04:20:51.955Z,16.90
2019-05-02T04:23:27.715Z,16.83
2019-05-02T04:25:52.513Z,16.43
2019-05-02T04:28:23.264Z,17.10
2019-05-02T04:30:54.082Z,18.57
2019-05-02T04:33:29.114Z,19.00
2019-05-02T04:35:59.217Z,18.50
2019-05-02T04:38:39.142Z,18.10
2019-05-02T04:40:58.972Z,19.70
2019-05-02T04:43:28.689Z,19.00
2019-05-02T04:46:00.052Z,18.13
2019-05-02T04:48:28.476Z,18.30
2019-05-02T04:50:59.739Z,18.90
2019-05-02T04:53:36.657Z,19.47
2019-05-02T04:56:04.376Z,18.40
2019-05-02T04:58:33.484Z,18.67
2019-05-02T05:01:01.900Z,19.87
2019-05-02T05:03:30.694Z,20.20
2019-05-02T05:06:07.037Z,18.40
2019-05-02T05:08:32.133Z,19.43
2019-05-02T05:11:02.439Z,20.50
2019-05-02T05:13:32.944Z,22.07
2019-05-02T05:16:08.700Z,21.27
2019-05-02T05:18:34.077Z,20.67
2019-05-02T05:21:04.644Z,19.80
2019-05-02T05:23:42.834Z,21.60
2019-05-02T05:26:12.576Z,21.93
2019-05-02T05:28:44.305Z,21.60
2019-05-02T05:31:16.420Z,24.23
2019-05-02T05:33:43.773Z,22.17
2019-05-02T05:36:14.105Z,22.67
2019-05-02T05:38:44.760Z,20.30
2019-05-02T05:41:20.177Z,22.40
2019-05-02T05:43:50.094Z,23.50
2019-05-02T05:46:17.872Z,23.00
2019-05-02T05:48:47.711Z,22.83
2019-05-02T05:51:20.511Z,23.67
2019-05-02T05:53:47.842Z,26.37
2019-05-02T05:56:18.045Z,24.90
2019-05-02T05:58:52.445Z,24.10
2019-05-02T06:01:20.361Z,25.03
2019-05-02T06:03:48.817Z,25.80
2019-05-02T06:06:22.853Z,27.53
2019-05-02T06:08:54.153Z,26.40
2019-05-02T06:11:21.814Z,25.33
2019-05-02T06:13:51.264Z,26.67
2019-05-02T06:16:21.611Z,26.80
2019-05-02T06:18:52.268Z,26.27
2019-05-02T06:21:22.665Z,27.73
2019-05-02T06:23:53.625Z,24.93
2019-05-02T06:26:24.128Z,27.50
2019-05-02T06:28:54.616Z,27.43
2019-05-02T06:31:25.010Z,30.40
2019-05-02T06:33:55.549Z,27.27
2019-05-02T06:36:26.138Z,28.17
2019-05-02T06:38:57.812Z,26.67
2019-05-02T06:41:27.464Z,27.07
2019-05-02T06:43:57.961Z,26.33
2019-05-02T06:46:29.746Z,26.23
2019-05-02T06:48:59.173Z,26.57
2019-05-02T06:51:29.536Z,26.53
2019-05-02T06:54:00.088Z,26.00
2019-05-02T06:56:30.373Z,23.80
2019-05-02T06:59:01.341Z,27.10
2019-05-02T07:01:31.889Z,25.83
2019-05-02T07:04:04.131Z,26.07
2019-05-02T07:06:42.168Z,25.73
2019-05-02T07:09:03.911Z,26.90
2019-05-02T07:11:38.943Z,25.30
2019-05-02T07:14:12.964Z,25.13
2019-05-02T07:16:49.685Z,25.40
2019-05-02T07:19:29.197Z,23.30
2019-05-02T07:21:59.069Z,24.00
2019-05-02T07:24:30.668Z,26.30
2019-05-02T07:26:58.342Z,24.60
2019-05-02T07:29:28.701Z,26.83
2019-05-02T07:31:58.973Z,23.63
2019-05-02T07:34:29.324Z,23.97
2019-05-02T07:36:59.732Z,21.03
2019-05-02T07:39:30.487Z,21.00
2019-05-02T07:42:05.669Z,20.80
2019-05-02T07:44:32.768Z,20.40
2019-05-02T07:47:02.740Z,19.90
2019-05-02T07:49:33.926Z,21.20
2019-05-02T07:52:02.296Z,19.63
2019-05-02T07:54:32.986Z,19.13
2019-05-02T07:57:03.167Z,20.80
2019-05-02T07:59:33.580Z,20.37
2019-05-02T08:02:03.804Z,19.07
2019-05-02T08:04:34.232Z,19.73
2019-05-02T08:07:04.905Z,18.77
2019-05-02T08:09:39.157Z,19.60
2019-05-02T08:12:06.349Z,21.17
2019-05-02T08:14:36.925Z,21.43
2019-05-02T08:17:16.020Z,19.77
2019-05-02T08:19:41.636Z,20.27
2019-05-02T08:22:13.241Z,20.50
2019-05-02T08:24:39.216Z,20.57
2019-05-02T08:27:45.029Z,20.20
2019-05-02T08:30:21.220Z,21.80
2019-05-02T08:32:51.464Z,20.13
2019-05-02T08:35:21.752Z,20.97
2019-05-02T08:37:51.945Z,19.63
2019-05-02T08:40:22.155Z,19.37
2019-05-02T08:42:52.283Z,17.53
2019-05-02T08:45:22.519Z,18.33
2019-05-02T08:47:52.719Z,19.73
2019-05-02T08:50:27.214Z,17.80
2019-05-02T08:52:53.233Z,15.20
2019-05-02T08:55:23.557Z,17.87
2019-05-02T08:59:19.669Z,17.47
2019-05-02T09:01:49.479Z,21.30
2019-05-02T09:04:18.243Z,18.57
2019-05-02T09:06:48.472Z,17.53
2019-05-02T09:09:22.725Z,18.07
2019-05-02T09:12:03.277Z,17.67
2019-05-02T09:14:21.582Z,18.03
2019-05-02T09:16:52.223Z,17.90
2019-05-02T09:19:21.371Z,17.30
2019-05-02T09:21:52.535Z,17.73
2019-05-02T09:24:23.796Z,17.17
2019-05-02T09:26:52.060Z,17.27
2019-05-02T09:29:22.597Z,18.83
2019-05-02T09:31:52.986Z,19.40
2019-05-02T09:34:26.728Z,18.70
2019-05-02T09:36:53.860Z,17.53
2019-05-02T09:39:27.414Z,17.53
2019-05-02T09:41:54.865Z,17.90
2019-05-02T09:44:25.016Z,16.40
2019-05-02T09:46:56.983Z,14.23
2019-05-02T09:49:25.809Z,14.73
2019-05-02T09:51:59.680Z,16.10
2019-05-02T09:54:26.881Z,16.20
2019-05-02T09:56:57.480Z,19.27
2019-05-02T09:59:33.225Z,16.00
2019-05-02T10:02:05.837Z,15.30
2019-05-02T10:04:36.448Z,17.77
2019-05-02T10:07:06.990Z,16.00
2019-05-02T10:09:37.429Z,16.27
2019-05-02T10:12:08.104Z,16.33
2019-05-02T10:14:38.596Z,16.30
2019-05-02T10:17:09.191Z,16.27
2019-05-02T10:19:43.014Z,14.77
2019-05-02T10:22:12.273Z,15.60
2019-05-02T10:24:42.533Z,14.77
2019-05-02T10:27:12.605Z,14.70
2019-05-02T10:29:42.248Z,16.43
2019-05-02T10:32:16.561Z,14.40
2019-05-02T10:34:47.586Z,15.30
2019-05-02T10:37:14.072Z,14.10
2019-05-02T10:39:44.672Z,14.53
2019-05-02T10:42:15.297Z,13.60
2019-05-02T10:44:45.865Z,13.37
2019-05-02T10:47:16.348Z,13.47
2019-05-02T10:49:52.595Z,12.33
2019-05-02T10:52:29.331Z,9.87
2019-05-02T10:54:52.829Z,12.07
2019-05-02T10:57:22.925Z,8.80
2019-05-02T10:59:56.076Z,8.90
2019-05-02T11:02:29.178Z,7.50
2019-05-02T11:05:02.706Z,7.27
2019-05-02T11:07:32.775Z,7.60
2019-05-02T11:10:06.657Z,6.67
2019-05-02T11:12:44.107Z,6.23
2019-05-02T11:16:17.806Z,5.40
2019-05-02T11:18:55.346Z,5.57
2019-05-02T11:21:26.073Z,6.07
2019-05-02T11:23:56.594Z,5.83
2019-05-02T11:26:27.109Z,5.73
2019-05-02T11:28:57.589Z,5.60
2019-05-02T11:31:27.920Z,5.63
2019-05-02T11:33:58.400Z,4.70
2019-05-02T11:36:28.893Z,5.00
2019-05-02T11:39:08.361Z,5.97
2019-05-02T11:41:31.677Z,5.87
2019-05-02T11:44:01.030Z,6.43
2019-05-02T11:46:32.832Z,6.03
2019-05-02T11:49:02.367Z,8.90
2019-05-02T11:51:32.737Z,8.90
2019-05-02T11:54:07.654Z,7.23
2019-05-02T11:56:33.082Z,6.43
2019-05-02T11:59:03.281Z,7.50
2019-05-02T12:01:39.339Z,8.30
2019-05-02T12:04:07.623Z,7.20
2019-05-02T12:06:34.404Z,5.87
2019-05-02T12:09:05.138Z,6.53
2019-05-02T12:11:34.948Z,7.17
2019-05-02T12:14:05.306Z,7.50
2019-05-02T12:16:35.801Z,5.90
2019-05-02T12:19:11.316Z,7.23
2019-05-02T12:21:35.251Z,7.03
2019-05-02T12:24:05.774Z,7.10
2019-05-02T12:26:36.277Z,8.03
2019-05-02T12:29:07.040Z,7.77
2019-05-02T12:31:37.525Z,7.77
2019-05-02T12:34:07.997Z,6.80
2019-05-02T12:36:38.629Z,6.83
2019-05-02T12:39:09.196Z,6.77
2019-05-02T12:41:39.642Z,8.50
2019-05-02T12:44:11.608Z,8.83
2019-05-02T12:46:42.045Z,8.30
2019-05-02T12:49:22.582Z,7.17
2019-05-02T12:51:42.895Z,7.50
2019-05-02T12:54:12.367Z,8.60
2019-05-02T12:56:42.201Z,8.70
2019-05-02T12:59:12.917Z,7.87
2019-05-02T13:01:43.293Z,8.30
2019-05-02T13:04:14.554Z,7.50
2019-05-02T13:06:45.001Z,8.40
2019-05-02T13:09:15.529Z,9.23
2019-05-02T13:11:58.927Z,8.70
2019-05-02T13:14:31.881Z,9.27
2019-05-02T13:17:05.554Z,8.80
2019-05-02T13:19:40.172Z,7.80
2019-05-02T13:22:16.674Z,8.37
2019-05-02T13:24:54.042Z,9.17
2019-05-02T13:27:22.740Z,8.07
2019-05-02T13:29:52.445Z,8.23
2019-05-02T13:32:32.092Z,7.10
2019-05-02T13:35:42.039Z,7.20
2019-05-02T13:38:12.914Z,7.57
2019-05-02T13:40:44.478Z,7.33
2019-05-02T13:43:14.856Z,8.03
2019-05-02T13:46:15.642Z,8.17
2019-05-02T13:48:45.933Z,8.10
2019-05-02T13:51:16.404Z,7.73
2019-05-02T13:53:55.398Z,7.50
2019-05-02T13:56:57.079Z,8.23
2019-05-02T13:59:27.596Z,7.87
2019-05-02T14:01:58.193Z,8.40
2019-05-02T14:04:28.754Z,7.27
2019-05-02T14:06:59.216Z,8.53
2019-05-02T14:09:34.844Z,7.73
2019-05-02T14:12:45.001Z,8.43
2019-05-02T14:15:18.065Z,8.03
2019-05-02T14:17:48.520Z,7.47
2019-05-02T14:20:22.359Z,7.97
2019-05-02T14:22:52.688Z,7.93
2019-05-02T14:25:22.364Z,9.80
2019-05-02T14:27:55.520Z,9.00
2019-05-02T14:30:35.399Z,9.67
2019-05-02T14:32:53.686Z,9.93
2019-05-02T14:35:28.498Z,8.50
2019-05-02T14:38:03.910Z,8.33
2019-05-02T14:40:34.552Z,7.80
2019-05-02T14:43:06.036Z,7.97
2019-05-02T14:45:35.515Z,7.83
2019-05-02T14:48:18.354Z,8.03
2019-05-02T14:50:40.695Z,8.23
2019-05-02T14:53:07.194Z,7.83
2019-05-02T14:55:38.377Z,7.80
2019-05-02T14:58:08.961Z,7.97
2019-05-02T15:00:45.779Z,7.60
2019-05-02T15:03:12.913Z,7.63
2019-05-02T15:05:42.441Z,7.87
2019-05-02T15:08:12.749Z,6.37
2019-05-02T15:10:52.976Z,6.70
2019-05-02T15:13:13.709Z,7.17
2019-05-02T15:15:44.188Z,7.13
2019-05-02T15:18:17.518Z,6.93
2019-05-02T15:20:44.964Z,7.27
2019-05-02T15:23:19.527Z,6.93
2019-05-02T15:25:47.058Z,6.77
2019-05-02T15:28:19.679Z,7.27
2019-05-02T15:30:54.169Z,7.67
2019-05-02T15:33:25.604Z,7.50
2019-05-02T15:36:03.109Z,8.17
2019-05-02T15:38:29.763Z,8.50
2019-05-02T15:41:07.054Z,8.00
2019-05-02T15:43:31.684Z,8.60
2019-05-02T15:46:01.682Z,7.13
2019-05-02T15:48:32.360Z,7.03
2019-05-02T15:51:06.107Z,6.60
2019-05-02T15:53:44.607Z,6.27
2019-05-02T15:56:19.831Z,6.70
2019-05-02T15:58:44.213Z,5.47
2019-05-02T16:02:17.547Z,5.70
2019-05-02T16:04:47.628Z,6.37
2019-05-02T16:07:17.961Z,6.23
2019-05-02T16:12:41.782Z,6.17
2019-05-02T16:15:18.198Z,5.93
2019-05-02T16:17:42.450Z,7.40
2019-05-02T16:20:20.489Z,6.10
2019-05-02T16:22:52.415Z,7.73
2019-05-02T16:25:24.461Z,6.07
2019-05-02T16:27:52.853Z,5.80
2019-05-02T16:30:22.979Z,5.40
2019-05-02T16:32:56.563Z,6.10
2019-05-02T16:35:28.003Z,6.50
2019-05-02T16:37:58.593Z,6.23
2019-05-02T16:40:32.793Z,5.53
2019-05-02T16:43:02.641Z,5.87
2019-05-02T16:45:32.739Z,5.50
2019-05-02T16:48:03.317Z,4.70
2019-05-02T16:50:35.130Z,5.53
2019-05-02T16:53:02.475Z,5.00
2019-05-02T16:55:32.935Z,7.40
2019-05-02T16:58:07.006Z,4.10
2019-05-02T17:00:36.898Z,5.43
2019-05-02T17:03:04.366Z,4.23
2019-05-02T17:05:39.372Z,4.23
2019-05-02T17:09:08.955Z,4.63
2019-05-02T17:11:42.010Z,4.37
2019-05-02T17:14:13.562Z,4.23
2019-05-02T17:16:55.787Z,4.13
2019-05-02T17:19:30.609Z,4.00
2019-05-02T17:22:12.121Z,4.53
2019-05-02T17:25:01.444Z,4.50
2019-05-02T17:27:34.558Z,4.10
2019-05-02T17:30:05.595Z,4.60
2019-05-02T17:32:37.626Z,4.97
2019-05-02T17:35:14.698Z,4.60
2019-05-02T17:37:48.671Z,4.73
2019-05-02T17:40:16.906Z,4.80
2019-05-02T17:42:46.741Z,5.20
2019-05-02T17:45:17.581Z,4.87
2019-05-02T17:47:47.945Z,5.03
2019-05-02T17:50:23.945Z,4.67
2019-05-02T17:52:56.101Z,5.00
2019-05-02T17:55:24.949Z,4.70
2019-05-02T17:57:55.328Z,5.10
2019-05-02T18:00:26.061Z,4.97
2019-05-02T18:02:56.741Z,5.83
2019-05-02T18:05:34.069Z,5.90
2019-05-02T18:07:58.570Z,5.30
2019-05-02T18:10:28.995Z,5.40
2019-05-02T18:13:00.104Z,4.83
2019-05-02T18:15:34.695Z,5.53
2019-05-02T18:18:06.460Z,6.20
2019-05-02T18:20:32.444Z,6.03
2019-05-02T18:23:02.780Z,5.97
2019-05-02T18:25:32.155Z,5.87
2019-05-02T18:28:02.803Z,7.60
2019-05-02T18:30:33.312Z,7.07
2019-05-02T18:33:07.236Z,6.90
2019-05-02T18:35:37.431Z,6.73
2019-05-02T18:38:05.195Z,6.47
2019-05-02T18:40:35.764Z,7.93
2019-05-02T18:43:06.309Z,6.17
2019-05-02T18:45:36.912Z,7.30
2019-05-02T18:48:07.556Z,6.23
2019-05-02T18:50:44.358Z,5.10
2019-05-02T18:53:09.409Z,6.07
2019-05-02T18:55:42.034Z,5.97
2019-05-02T18:58:12.591Z,5.27
2019-05-02T19:11:26.662Z,9.80
2019-05-02T19:17:23.445Z,18.70
2019-05-02T19:19:54.027Z,13.07
2019-05-02T19:22:24.512Z,6.20
2019-05-02T19:24:54.937Z,6.30
2019-05-02T19:27:30.340Z,6.30
2019-05-02T19:30:02.848Z,6.50
2019-05-02T19:32:32.074Z,7.00
2019-05-02T19:35:03.274Z,9.17
2019-05-02T19:37:36.169Z,7.50
2019-05-02T19:40:03.184Z,7.93
2019-05-02T19:42:33.835Z,8.20
2019-05-02T19:45:11.791Z,8.90
2019-05-02T19:47:35.041Z,7.37
2019-05-02T19:50:05.820Z,9.03
2019-05-02T19:52:39.277Z,9.90
2019-05-02T19:55:14.084Z,9.17
2019-05-02T19:57:37.571Z,8.53
2019-05-02T20:00:08.130Z,7.00
2019-05-02T20:02:42.450Z,6.10
2019-05-02T20:05:09.101Z,17.90
2019-05-02T20:07:39.728Z,6.77
2019-05-02T20:10:12.190Z,7.27
2019-05-02T20:12:48.285Z,8.77
2019-05-02T20:15:12.140Z,10.10
2019-05-02T20:17:42.361Z,11.40
2019-05-02T20:20:21.655Z,10.83
2019-05-02T20:22:52.347Z,8.87
2019-05-02T20:25:22.777Z,9.67
2019-05-02T20:27:52.612Z,9.83
2019-05-02T20:30:22.550Z,10.13
2019-05-02T20:32:53.033Z,10.53
2019-05-02T20:35:23.376Z,11.27
2019-05-02T20:37:53.852Z,12.67
2019-05-02T20:40:27.811Z,13.60
2019-05-02T20:42:58.605Z,13.17
2019-05-02T20:45:29.325Z,13.70
2019-05-02T20:48:01.848Z,15.03
2019-05-02T20:50:31.865Z,12.90
2019-05-02T20:53:01.974Z,13.30
2019-05-02T20:55:32.282Z,14.43
2019-05-02T20:58:02.266Z,12.87
2019-05-02T21:00:32.988Z,13.60
2019-05-02T21:03:02.904Z,12.47
2019-05-02T21:05:38.584Z,15.13
2019-05-02T21:08:15.145Z,14.70
2019-05-02T21:10:45.829Z,10.10
2019-05-02T21:13:15.643Z,9.93
2019-05-02T21:15:45.889Z,10.60
2019-05-02T21:18:16.393Z,10.10
2019-05-02T21:20:46.953Z,9.60
2019-05-02T21:23:17.437Z,9.57
2019-05-02T21:25:48.772Z,10.90
2019-05-02T21:28:19.793Z,10.83
2019-05-02T21:30:52.202Z,11.83
2019-05-02T21:33:32.022Z,13.40
2019-05-02T21:36:02.226Z,13.77
2019-05-02T21:38:32.700Z,10.87
2019-05-02T21:41:03.181Z,12.10
2019-05-02T21:43:33.626Z,13.03
2019-05-02T21:46:04.116Z,12.30
2019-05-02T21:48:34.717Z,15.43
2019-05-02T21:51:12.535Z,13.63
2019-05-02T21:53:54.925Z,12.87
2019-05-02T21:56:28.371Z,12.67
2019-05-02T21:59:03.744Z,13.07
2019-05-02T22:01:34.561Z,13.23
2019-05-02T22:04:05.284Z,14.93
2019-05-02T22:06:35.589Z,12.77
2019-05-02T22:09:07.673Z,16.87
2019-05-02T22:11:38.700Z,13.30
2019-05-02T22:14:09.311Z,13.43
2019-05-02T22:16:41.940Z,14.73
2019-05-02T22:19:10.513Z,15.83
2019-05-02T22:21:43.031Z,17.73
2019-05-02T22:24:14.176Z,17.60
2019-05-02T22:26:43.601Z,17.23
2019-05-02T22:29:13.154Z,16.23
2019-05-02T22:31:43.773Z,14.40
2019-05-02T22:34:14.421Z,15.17
2019-05-02T22:36:44.860Z,15.70
2019-05-02T22:40:19.350Z,15.87
2019-05-02T22:42:49.740Z,14.43
2019-05-02T22:45:21.680Z,16.13
2019-05-02T22:47:52.016Z,17.03
2019-05-02T22:50:21.988Z,17.97
2019-05-02T22:52:52.285Z,17.37
2019-05-02T22:55:22.606Z,16.90
2019-05-02T22:57:52.837Z,16.97
2019-05-02T23:00:23.633Z,17.50
2019-05-02T23:02:53.981Z,17.83
2019-05-02T23:05:24.444Z,21.80
2019-05-02T23:07:54.945Z,20.67
2019-05-02T23:10:25.504Z,29.73
2019-05-02T23:12:56.041Z,24.30
2019-05-02T23:15:26.661Z,25.53
2019-05-02T23:17:57.012Z,20.27
2019-05-02T23:20:27.419Z,24.73
2019-05-02T23:22:57.969Z,25.97
2019-05-02T23:25:33.492Z,18.67
2019-05-02T23:28:09.229Z,13.43
2019-05-02T23:30:40.096Z,14.53
2019-05-02T23:33:10.672Z,14.30
2019-05-02T23:35:43.051Z,13.70
2019-05-02T23:38:12.562Z,15.10
2019-05-02T23:40:42.644Z,14.63
2019-05-02T23:43:13.238Z,16.40
2019-05-02T23:45:43.788Z,16.97
2019-05-02T23:48:14.280Z,16.50
2019-05-02T23:50:44.817Z,16.57
2019-05-02T23:53:15.156Z,16.67
2019-05-02T23:55:45.700Z,15.70
2019-05-02T23:58:16.100Z,19.40
